sensor_id;sensor_type;location;lat;lon;timestamp;pressure;altitude;pressure_sealevel;temperature;humidity
52735;BME280;38631;47.572;10.704;2023-08-17T00:00:33;92748.22;;;21.13;71.64
52735;BME280;38631;47.572;10.704;2023-08-17T00:02:58;92745.66;;;21.24;70.63
52735;BME280;38631;47.572;10.704;2023-08-17T00:05:24;92750.09;;;21.09;72.06
52735;BME280;38631;47.572;10.704;2023-08-17T00:07:51;92742.34;;;20.77;75.42
52735;BME280;38631;47.572;10.704;2023-08-17T00:10:17;92743.22;;;20.85;74.82
52735;BME280;38631;47.572;10.704;2023-08-17T00:12:42;92739.03;;;20.91;72.26
52735;BME280;38631;47.572;10.704;2023-08-17T00:15:08;92725.56;;;20.91;71.82
52735;BME280;38631;47.572;10.704;2023-08-17T00:17:33;92731.88;;;21.02;70.79
52735;BME280;38631;47.572;10.704;2023-08-17T00:19:59;92732.00;;;21.09;70.31
52735;BME280;38631;47.572;10.704;2023-08-17T00:22:24;92726.53;;;21.06;70.62
52735;BME280;38631;47.572;10.704;2023-08-17T00:24:49;92723.50;;;21.11;68.35
52735;BME280;38631;47.572;10.704;2023-08-17T00:27:15;92725.41;;;21.07;69.65
52735;BME280;38631;47.572;10.704;2023-08-17T00:29:40;92726.09;;;21.04;69.83
52735;BME280;38631;47.572;10.704;2023-08-17T00:32:06;92727.50;;;21.21;68.40
52735;BME280;38631;47.572;10.704;2023-08-17T00:34:31;92730.28;;;21.28;69.03
52735;BME280;38631;47.572;10.704;2023-08-17T00:36:57;92737.09;;;21.18;70.24
52735;BME280;38631;47.572;10.704;2023-08-17T00:39:22;92735.53;;;21.44;68.04
52735;BME280;38631;47.572;10.704;2023-08-17T00:41:47;92745.66;;;21.24;68.62
52735;BME280;38631;47.572;10.704;2023-08-17T00:44:13;92736.84;;;20.97;72.21
52735;BME280;38631;47.572;10.704;2023-08-17T00:46:38;92749.47;;;20.66;73.79
52735;BME280;38631;47.572;10.704;2023-08-17T00:49:04;92756.50;;;20.70;72.73
52735;BME280;38631;47.572;10.704;2023-08-17T00:51:30;92754.00;;;20.58;75.08
52735;BME280;38631;47.572;10.704;2023-08-17T00:53:58;92752.78;;;20.33;77.18
52735;BME280;38631;47.572;10.704;2023-08-17T00:56:24;92754.91;;;19.77;80.73
52735;BME280;38631;47.572;10.704;2023-08-17T00:58:50;92748.16;;;19.87;80.03
52735;BME280;38631;47.572;10.704;2023-08-17T01:01:16;92752.84;;;19.71;81.75
52735;BME280;38631;47.572;10.704;2023-08-17T01:03:42;92750.16;;;20.13;77.64
52735;BME280;38631;47.572;10.704;2023-08-17T01:06:08;92746.81;;;20.20;76.52
52735;BME280;38631;47.572;10.704;2023-08-17T01:08:34;92739.78;;;20.38;74.60
52735;BME280;38631;47.572;10.704;2023-08-17T01:13:40;92754.41;;;20.37;73.65
52735;BME280;38631;47.572;10.704;2023-08-17T01:16:12;92752.06;;;20.13;76.39
52735;BME280;38631;47.572;10.704;2023-08-17T01:18:40;92741.09;;;20.02;76.50
52735;BME280;38631;47.572;10.704;2023-08-17T01:21:06;92746.06;;;20.23;75.81
52735;BME280;38631;47.572;10.704;2023-08-17T01:23:33;92748.25;;;20.37;72.28
52735;BME280;38631;47.572;10.704;2023-08-17T01:25:58;92747.22;;;20.45;73.19
52735;BME280;38631;47.572;10.704;2023-08-17T01:28:24;92740.47;;;20.32;73.23
52735;BME280;38631;47.572;10.704;2023-08-17T01:33:52;92759.13;;;19.98;78.04
52735;BME280;38631;47.572;10.704;2023-08-17T01:36:25;92754.41;;;19.72;78.97
52735;BME280;38631;47.572;10.704;2023-08-17T01:38:52;92755.94;;;19.92;76.71
52735;BME280;38631;47.572;10.704;2023-08-17T01:41:22;92755.19;;;19.92;77.16
52735;BME280;38631;47.572;10.704;2023-08-17T01:43:48;92743.50;;;19.84;78.51
52735;BME280;38631;47.572;10.704;2023-08-17T01:46:17;92749.56;;;19.81;78.98
52735;BME280;38631;47.572;10.704;2023-08-17T01:48:43;92745.75;;;19.82;78.65
52735;BME280;38631;47.572;10.704;2023-08-17T01:51:10;92740.06;;;19.87;77.41
52735;BME280;38631;47.572;10.704;2023-08-17T01:53:36;92746.69;;;19.70;78.47
52735;BME280;38631;47.572;10.704;2023-08-17T01:56:01;92741.91;;;19.63;78.48
52735;BME280;38631;47.572;10.704;2023-08-17T01:58:26;92747.19;;;19.37;79.06
52735;BME280;38631;47.572;10.704;2023-08-17T02:00:52;92742.91;;;19.36;81.50
52735;BME280;38631;47.572;10.704;2023-08-17T02:03:17;92755.69;;;19.39;83.19
52735;BME280;38631;47.572;10.704;2023-08-17T02:05:46;92745.31;;;19.21;86.12
52735;BME280;38631;47.572;10.704;2023-08-17T02:08:12;92740.78;;;19.06;87.13
52735;BME280;38631;47.572;10.704;2023-08-17T02:10:37;92741.56;;;19.07;86.55
52735;BME280;38631;47.572;10.704;2023-08-17T02:13:03;92737.22;;;19.41;84.57
52735;BME280;38631;47.572;10.704;2023-08-17T02:15:29;92740.63;;;19.18;85.78
52735;BME280;38631;47.572;10.704;2023-08-17T02:17:54;92727.88;;;19.15;85.70
52735;BME280;38631;47.572;10.704;2023-08-17T02:20:19;92719.75;;;19.12;86.53
52735;BME280;38631;47.572;10.704;2023-08-17T02:22:45;92727.53;;;19.17;85.43
52735;BME280;38631;47.572;10.704;2023-08-17T02:25:10;92720.56;;;19.16;85.22
52735;BME280;38631;47.572;10.704;2023-08-17T02:27:36;92724.81;;;18.97;86.09
52735;BME280;38631;47.572;10.704;2023-08-17T02:30:02;92722.63;;;19.03;83.82
52735;BME280;38631;47.572;10.704;2023-08-17T02:32:28;92724.72;;;19.29;85.00
52735;BME280;38631;47.572;10.704;2023-08-17T02:34:54;92721.53;;;19.24;85.65
52735;BME280;38631;47.572;10.704;2023-08-17T02:37:19;92719.59;;;19.24;86.83
52735;BME280;38631;47.572;10.704;2023-08-17T02:39:44;92712.69;;;18.88;88.64
52735;BME280;38631;47.572;10.704;2023-08-17T02:42:10;92712.28;;;18.70;84.87
52735;BME280;38631;47.572;10.704;2023-08-17T02:44:36;92713.84;;;19.26;82.68
52735;BME280;38631;47.572;10.704;2023-08-17T02:47:01;92703.84;;;18.87;86.62
52735;BME280;38631;47.572;10.704;2023-08-17T02:49:26;92710.47;;;18.58;88.42
52735;BME280;38631;47.572;10.704;2023-08-17T02:51:52;92715.19;;;18.61;87.94
52735;BME280;38631;47.572;10.704;2023-08-17T02:54:17;92712.69;;;18.05;91.25
52735;BME280;38631;47.572;10.704;2023-08-17T02:56:42;92719.78;;;18.45;89.86
52735;BME280;38631;47.572;10.704;2023-08-17T02:59:08;92720.78;;;18.72;89.28
52735;BME280;38631;47.572;10.704;2023-08-17T03:01:33;92723.53;;;18.24;91.86
52735;BME280;38631;47.572;10.704;2023-08-17T03:03:58;92718.25;;;18.12;92.64
52735;BME280;38631;47.572;10.704;2023-08-17T03:06:24;92717.41;;;18.24;91.71
52735;BME280;38631;47.572;10.704;2023-08-17T03:08:49;92717.41;;;18.24;91.09
52735;BME280;38631;47.572;10.704;2023-08-17T03:11:15;92715.13;;;18.10;91.77
52735;BME280;38631;47.572;10.704;2023-08-17T03:13:40;92725.19;;;18.13;91.97
52735;BME280;38631;47.572;10.704;2023-08-17T03:16:05;92713.50;;;18.21;90.54
52735;BME280;38631;47.572;10.704;2023-08-17T03:18:31;92713.56;;;18.25;91.93
52735;BME280;38631;47.572;10.704;2023-08-17T03:20:56;92724.06;;;18.30;91.73
52735;BME280;38631;47.572;10.704;2023-08-17T03:23:22;92723.22;;;18.26;91.55
52735;BME280;38631;47.572;10.704;2023-08-17T03:25:52;92726.50;;;18.19;91.17
52735;BME280;38631;47.572;10.704;2023-08-17T03:28:17;92723.78;;;17.87;93.06
52735;BME280;38631;47.572;10.704;2023-08-17T03:30:42;92722.03;;;17.79;92.03
52735;BME280;38631;47.572;10.704;2023-08-17T03:33:08;92724.16;;;18.02;91.16
52735;BME280;38631;47.572;10.704;2023-08-17T03:35:34;92727.78;;;18.09;90.92
52735;BME280;38631;47.572;10.704;2023-08-17T03:38:00;92720.75;;;17.89;92.02
52735;BME280;38631;47.572;10.704;2023-08-17T03:40:25;92727.50;;;17.55;93.25
52735;BME280;38631;47.572;10.704;2023-08-17T03:42:51;92740.94;;;17.55;94.56
52735;BME280;38631;47.572;10.704;2023-08-17T03:45:17;92725.78;;;17.90;92.82
52735;BME280;38631;47.572;10.704;2023-08-17T03:47:43;92726.94;;;17.61;94.20
52735;BME280;38631;47.572;10.704;2023-08-17T03:50:09;92731.47;;;17.73;93.40
52735;BME280;38631;47.572;10.704;2023-08-17T03:52:34;92732.44;;;17.53;94.42
52735;BME280;38631;47.572;10.704;2023-08-17T03:54:59;92735.28;;;17.44;94.77
52735;BME280;38631;47.572;10.704;2023-08-17T03:57:25;92733.72;;;17.43;95.48
52735;BME280;38631;47.572;10.704;2023-08-17T03:59:50;92732.06;;;17.66;93.55
52735;BME280;38631;47.572;10.704;2023-08-17T04:02:16;92740.25;;;17.30;95.22
52735;BME280;38631;47.572;10.704;2023-08-17T04:04:41;92734.34;;;17.52;93.51
52735;BME280;38631;47.572;10.704;2023-08-17T04:07:06;92743.16;;;17.37;94.09
52735;BME280;38631;47.572;10.704;2023-08-17T04:09:32;92748.41;;;17.61;92.75
52735;BME280;38631;47.572;10.704;2023-08-17T04:11:58;92757.88;;;17.15;96.08
52735;BME280;38631;47.572;10.704;2023-08-17T04:14:24;92760.13;;;17.69;93.86
52735;BME280;38631;47.572;10.704;2023-08-17T04:16:49;92749.56;;;17.76;93.28
52735;BME280;38631;47.572;10.704;2023-08-17T04:19:15;92747.03;;;17.67;92.17
52735;BME280;38631;47.572;10.704;2023-08-17T04:21:40;92755.56;;;17.41;93.02
52735;BME280;38631;47.572;10.704;2023-08-17T04:24:06;92761.56;;;17.51;93.39
52735;BME280;38631;47.572;10.704;2023-08-17T04:26:31;92757.47;;;17.00;95.65
52735;BME280;38631;47.572;10.704;2023-08-17T04:28:56;92758.28;;;17.29;94.38
52735;BME280;38631;47.572;10.704;2023-08-17T04:31:22;92753.88;;;17.09;96.29
52735;BME280;38631;47.572;10.704;2023-08-17T04:33:47;92755.22;;;17.02;95.56
52735;BME280;38631;47.572;10.704;2023-08-17T04:36:13;92759.13;;;17.05;97.14
52735;BME280;38631;47.572;10.704;2023-08-17T04:38:38;92761.38;;;17.43;95.00
52735;BME280;38631;47.572;10.704;2023-08-17T04:41:03;92756.53;;;17.21;94.77
52735;BME280;38631;47.572;10.704;2023-08-17T04:43:29;92762.44;;;17.26;96.16
52735;BME280;38631;47.572;10.704;2023-08-17T04:45:54;92763.03;;;17.48;94.18
52735;BME280;38631;47.572;10.704;2023-08-17T04:48:20;92761.09;;;17.20;95.13
52735;BME280;38631;47.572;10.704;2023-08-17T04:50:45;92767.63;;;17.35;94.72
52735;BME280;38631;47.572;10.704;2023-08-17T04:53:11;92765.13;;;17.70;93.73
52735;BME280;38631;47.572;10.704;2023-08-17T04:55:36;92762.28;;;17.91;93.51
52735;BME280;38631;47.572;10.704;2023-08-17T04:58:01;92777.38;;;18.12;92.59
52735;BME280;38631;47.572;10.704;2023-08-17T05:00:27;92771.13;;;18.08;90.84
52735;BME280;38631;47.572;10.704;2023-08-17T05:02:55;92776.16;;;18.09;90.35
52735;BME280;38631;47.572;10.704;2023-08-17T05:05:21;92772.84;;;18.00;92.30
52735;BME280;38631;47.572;10.704;2023-08-17T05:07:46;92783.19;;;18.30;90.94
52735;BME280;38631;47.572;10.704;2023-08-17T05:10:12;92778.00;;;18.21;91.79
52735;BME280;38631;47.572;10.704;2023-08-17T05:12:37;92776.44;;;18.20;89.80
52735;BME280;38631;47.572;10.704;2023-08-17T05:15:03;92787.94;;;18.05;92.15
52735;BME280;38631;47.572;10.704;2023-08-17T05:17:28;92787.97;;;18.37;91.93
52735;BME280;38631;47.572;10.704;2023-08-17T05:19:54;92799.50;;;18.37;90.18
52735;BME280;38631;47.572;10.704;2023-08-17T05:22:19;92782.25;;;18.06;91.61
52735;BME280;38631;47.572;10.704;2023-08-17T05:24:44;92791.97;;;18.27;90.63
52735;BME280;38631;47.572;10.704;2023-08-17T05:27:10;92794.41;;;18.64;90.11
52735;BME280;38631;47.572;10.704;2023-08-17T05:29:35;92797.59;;;18.22;90.75
52735;BME280;38631;47.572;10.704;2023-08-17T05:32:01;92797.25;;;18.55;88.91
52735;BME280;38631;47.572;10.704;2023-08-17T05:34:26;92791.97;;;18.59;89.94
52735;BME280;38631;47.572;10.704;2023-08-17T05:36:51;92800.19;;;18.66;88.11
52735;BME280;38631;47.572;10.704;2023-08-17T05:39:17;92796.66;;;18.77;89.16
52735;BME280;38631;47.572;10.704;2023-08-17T05:41:42;92796.13;;;18.56;88.54
52735;BME280;38631;47.572;10.704;2023-08-17T05:44:08;92800.13;;;18.94;85.78
52735;BME280;38631;47.572;10.704;2023-08-17T05:46:33;92795.19;;;18.80;85.89
52735;BME280;38631;47.572;10.704;2023-08-17T05:49:00;92799.56;;;19.04;83.21
52735;BME280;38631;47.572;10.704;2023-08-17T05:51:25;92799.13;;;19.02;83.70
52735;BME280;38631;47.572;10.704;2023-08-17T05:53:51;92805.56;;;19.33;83.28
52735;BME280;38631;47.572;10.704;2023-08-17T05:56:16;92801.34;;;19.16;84.59
52735;BME280;38631;47.572;10.704;2023-08-17T05:58:42;92809.72;;;19.30;85.18
52735;BME280;38631;47.572;10.704;2023-08-17T06:01:09;92802.16;;;19.16;84.63
52735;BME280;38631;47.572;10.704;2023-08-17T06:03:35;92799.88;;;19.38;83.70
52735;BME280;38631;47.572;10.704;2023-08-17T06:06:01;92798.25;;;19.14;84.26
52735;BME280;38631;47.572;10.704;2023-08-17T06:08:27;92792.88;;;19.14;83.82
52735;BME280;38631;47.572;10.704;2023-08-17T06:10:52;92790.50;;;19.12;84.46
52735;BME280;38631;47.572;10.704;2023-08-17T06:13:18;92792.44;;;19.12;84.66
52735;BME280;38631;47.572;10.704;2023-08-17T06:15:43;92789.19;;;19.22;83.38
52735;BME280;38631;47.572;10.704;2023-08-17T06:18:08;92796.22;;;19.27;82.29
52735;BME280;38631;47.572;10.704;2023-08-17T06:20:34;92792.38;;;19.28;80.06
52735;BME280;38631;47.572;10.704;2023-08-17T06:22:59;92794.34;;;19.31;79.06
52735;BME280;38631;47.572;10.704;2023-08-17T06:25:24;92790.56;;;19.51;79.80
52735;BME280;38631;47.572;10.704;2023-08-17T06:27:51;92795.00;;;19.63;78.22
52735;BME280;38631;47.572;10.704;2023-08-17T06:30:17;92790.78;;;19.62;78.95
52735;BME280;38631;47.572;10.704;2023-08-17T06:32:43;92786.94;;;19.63;80.87
52735;BME280;38631;47.572;10.704;2023-08-17T06:35:08;92787.00;;;19.86;81.06
52735;BME280;38631;47.572;10.704;2023-08-17T06:37:34;92784.03;;;19.91;80.15
52735;BME280;38631;47.572;10.704;2023-08-17T06:40:00;92788.34;;;19.96;79.14
52735;BME280;38631;47.572;10.704;2023-08-17T06:42:25;92788.50;;;20.26;79.07
52735;BME280;38631;47.572;10.704;2023-08-17T06:44:50;92786.66;;;20.30;78.98
52735;BME280;38631;47.572;10.704;2023-08-17T06:47:16;92786.19;;;20.24;78.30
52735;BME280;38631;47.572;10.704;2023-08-17T06:49:41;92777.91;;;20.37;80.47
52735;BME280;38631;47.572;10.704;2023-08-17T06:52:07;92784.19;;;20.44;80.64
52735;BME280;38631;47.572;10.704;2023-08-17T06:54:32;92782.31;;;20.71;77.86
52735;BME280;38631;47.572;10.704;2023-08-17T06:56:58;92779.09;;;20.85;77.56
52735;BME280;38631;47.572;10.704;2023-08-17T06:59:23;92782.94;;;20.84;80.94
52735;BME280;38631;47.572;10.704;2023-08-17T07:01:49;92779.34;;;21.03;77.67
52735;BME280;38631;47.572;10.704;2023-08-17T07:04:14;92782.53;;;21.39;76.75
52735;BME280;38631;47.572;10.704;2023-08-17T07:06:40;92784.78;;;21.64;77.00
52735;BME280;38631;47.572;10.704;2023-08-17T07:09:06;92783.75;;;21.72;76.82
52735;BME280;38631;47.572;10.704;2023-08-17T07:11:31;92788.44;;;21.45;72.52
52735;BME280;38631;47.572;10.704;2023-08-17T07:13:57;92788.88;;;21.84;74.19
52735;BME280;38631;47.572;10.704;2023-08-17T07:16:23;92786.91;;;21.77;73.97
52735;BME280;38631;47.572;10.704;2023-08-17T07:18:48;92789.09;;;22.02;75.77
52735;BME280;38631;47.572;10.704;2023-08-17T07:21:14;92795.81;;;22.15;77.52
52735;BME280;38631;47.572;10.704;2023-08-17T07:23:43;92799.84;;;21.95;74.51
52735;BME280;38631;47.572;10.704;2023-08-17T07:26:09;92799.03;;;22.25;73.73
52735;BME280;38631;47.572;10.704;2023-08-17T07:28:34;92795.56;;;22.28;72.71
52735;BME280;38631;47.572;10.704;2023-08-17T07:30:59;92798.09;;;22.51;72.64
52735;BME280;38631;47.572;10.704;2023-08-17T07:33:25;92802.41;;;22.59;72.32
52735;BME280;38631;47.572;10.704;2023-08-17T07:35:50;92797.34;;;22.54;72.60
52735;BME280;38631;47.572;10.704;2023-08-17T07:38:16;92794.84;;;22.75;72.17
52735;BME280;38631;47.572;10.704;2023-08-17T07:40:41;92795.47;;;23.06;71.42
52735;BME280;38631;47.572;10.704;2023-08-17T07:43:08;92788.38;;;22.94;69.59
52735;BME280;38631;47.572;10.704;2023-08-17T07:45:33;92797.38;;;23.02;69.85
52735;BME280;38631;47.572;10.704;2023-08-17T07:47:59;92801.50;;;22.89;71.53
52735;BME280;38631;47.572;10.704;2023-08-17T07:50:24;92799.47;;;23.23;69.68
52735;BME280;38631;47.572;10.704;2023-08-17T07:52:50;92796.19;;;22.99;73.24
52735;BME280;38631;47.572;10.704;2023-08-17T07:55:15;92804.81;;;23.16;73.75
52735;BME280;38631;47.572;10.704;2023-08-17T07:57:40;92798.63;;;23.15;70.40
52735;BME280;38631;47.572;10.704;2023-08-17T08:00:06;92804.78;;;23.12;68.15
52735;BME280;38631;47.572;10.704;2023-08-17T08:02:32;92801.81;;;23.32;69.52
52735;BME280;38631;47.572;10.704;2023-08-17T08:04:58;92796.41;;;23.32;69.59
52735;BME280;38631;47.572;10.704;2023-08-17T08:07:23;92796.81;;;23.34;69.23
52735;BME280;38631;47.572;10.704;2023-08-17T08:09:48;92799.94;;;23.39;69.99
52735;BME280;38631;47.572;10.704;2023-08-17T08:12:14;92798.25;;;23.17;68.37
52735;BME280;38631;47.572;10.704;2023-08-17T08:14:39;92796.75;;;23.26;68.53
52735;BME280;38631;47.572;10.704;2023-08-17T08:17:04;92799.16;;;23.42;68.62
52735;BME280;38631;47.572;10.704;2023-08-17T08:19:30;92800.72;;;23.43;69.03
52735;BME280;38631;47.572;10.704;2023-08-17T08:21:57;92795.03;;;23.63;69.29
52735;BME280;38631;47.572;10.704;2023-08-17T08:24:23;92794.19;;;23.48;67.20
52735;BME280;38631;47.572;10.704;2023-08-17T08:26:48;92802.88;;;23.75;69.19
52735;BME280;38631;47.572;10.704;2023-08-17T08:29:14;92793.78;;;23.46;66.37
52735;BME280;38631;47.572;10.704;2023-08-17T08:31:39;92798.47;;;23.60;66.76
52735;BME280;38631;47.572;10.704;2023-08-17T08:34:04;92795.50;;;23.79;68.27
52735;BME280;38631;47.572;10.704;2023-08-17T08:36:30;92787.72;;;23.74;67.59
52735;BME280;38631;47.572;10.704;2023-08-17T08:38:55;92785.06;;;23.81;66.96
52735;BME280;38631;47.572;10.704;2023-08-17T08:41:21;92791.28;;;23.89;68.41
52735;BME280;38631;47.572;10.704;2023-08-17T08:43:46;92801.78;;;23.98;68.47
52735;BME280;38631;47.572;10.704;2023-08-17T08:46:13;92783.13;;;23.78;65.69
52735;BME280;38631;47.572;10.704;2023-08-17T08:48:41;92794.00;;;23.89;66.11
52735;BME280;38631;47.572;10.704;2023-08-17T08:51:08;92796.72;;;23.96;65.74
52735;BME280;38631;47.572;10.704;2023-08-17T08:53:45;92792.03;;;23.82;65.96
52735;BME280;38631;47.572;10.704;2023-08-17T08:56:12;92791.72;;;24.02;67.50
52735;BME280;38631;47.572;10.704;2023-08-17T08:58:41;92791.34;;;24.14;67.71
52735;BME280;38631;47.572;10.704;2023-08-17T09:01:10;92795.97;;;23.99;66.38
52735;BME280;38631;47.572;10.704;2023-08-17T09:03:36;92792.41;;;23.81;65.09
52735;BME280;38631;47.572;10.704;2023-08-17T09:06:03;92780.44;;;23.85;66.50
52735;BME280;38631;47.572;10.704;2023-08-17T09:08:30;92789.03;;;24.20;66.97
52735;BME280;38631;47.572;10.704;2023-08-17T09:10:56;92788.25;;;24.12;66.72
52735;BME280;38631;47.572;10.704;2023-08-17T09:13:22;92785.94;;;24.14;66.21
52735;BME280;38631;47.572;10.704;2023-08-17T09:15:47;92787.09;;;24.13;64.87
52735;BME280;38631;47.572;10.704;2023-08-17T09:18:13;92786.31;;;24.09;65.83
52735;BME280;38631;47.572;10.704;2023-08-17T09:20:43;92782.47;;;24.21;66.44
52735;BME280;38631;47.572;10.704;2023-08-17T09:23:18;92784.38;;;24.17;66.46
52735;BME280;38631;47.572;10.704;2023-08-17T09:25:45;92788.28;;;24.15;66.64
52735;BME280;38631;47.572;10.704;2023-08-17T09:28:15;92785.56;;;24.23;65.78
52735;BME280;38631;47.572;10.704;2023-08-17T09:30:57;92775.03;;;23.96;63.77
52735;BME280;38631;47.572;10.704;2023-08-17T09:33:25;92784.00;;;24.22;63.95
52735;BME280;38631;47.572;10.704;2023-08-17T09:35:52;92785.56;;;24.19;64.66
52735;BME280;38631;47.572;10.704;2023-08-17T09:38:18;92771.88;;;23.87;62.23
52735;BME280;38631;47.572;10.704;2023-08-17T09:40:44;92778.88;;;23.88;62.80
52735;BME280;38631;47.572;10.704;2023-08-17T09:43:10;92769.94;;;23.87;61.50
52735;BME280;38631;47.572;10.704;2023-08-17T09:45:39;92774.22;;;23.92;62.83
52735;BME280;38631;47.572;10.704;2023-08-17T09:48:06;92774.66;;;24.01;63.44
52735;BME280;38631;47.572;10.704;2023-08-17T09:50:31;92776.66;;;24.26;63.27
52735;BME280;38631;47.572;10.704;2023-08-17T09:52:57;92773.53;;;24.13;63.48
52735;BME280;38631;47.572;10.704;2023-08-17T09:55:23;92774.69;;;24.15;62.66
52735;BME280;38631;47.572;10.704;2023-08-17T09:57:50;92772.34;;;24.03;61.90
52735;BME280;38631;47.572;10.704;2023-08-17T10:00:16;92771.16;;;23.97;62.87
52735;BME280;38631;47.572;10.704;2023-08-17T10:02:44;92776.25;;;24.27;62.25
52735;BME280;38631;47.572;10.704;2023-08-17T10:05:11;92780.59;;;24.50;62.44
52735;BME280;38631;47.572;10.704;2023-08-17T10:07:41;92773.53;;;24.17;61.49
52735;BME280;38631;47.572;10.704;2023-08-17T10:10:09;92773.53;;;24.27;62.58
52735;BME280;38631;47.572;10.704;2023-08-17T10:15:33;92769.28;;;24.23;60.82
52735;BME280;38631;47.572;10.704;2023-08-17T10:18:06;92773.94;;;24.29;61.04
52735;BME280;38631;47.572;10.704;2023-08-17T10:20:34;92761.94;;;24.30;62.35
52735;BME280;38631;47.572;10.704;2023-08-17T10:23:33;92771.63;;;24.31;60.06
52735;BME280;38631;47.572;10.704;2023-08-17T10:26:00;92771.59;;;24.24;60.64
52735;BME280;38631;47.572;10.704;2023-08-17T10:28:28;92764.63;;;24.37;60.37
52735;BME280;38631;47.572;10.704;2023-08-17T10:30:55;92777.09;;;24.46;58.28
52735;BME280;38631;47.572;10.704;2023-08-17T10:33:21;92768.56;;;24.47;55.85
52735;BME280;38631;47.572;10.704;2023-08-17T10:35:47;92773.25;;;24.50;57.79
52735;BME280;38631;47.572;10.704;2023-08-17T10:38:13;92760.81;;;24.64;58.39
52735;BME280;38631;47.572;10.704;2023-08-17T10:40:41;92765.84;;;24.72;59.38
52735;BME280;38631;47.572;10.704;2023-08-17T10:43:06;92771.31;;;24.83;58.24
52735;BME280;38631;47.572;10.704;2023-08-17T10:45:33;92768.59;;;24.69;54.76
52735;BME280;38631;47.572;10.704;2023-08-17T10:50:33;92761.59;;;24.86;56.96
52735;BME280;38631;47.572;10.704;2023-08-17T10:53:04;92762.75;;;24.81;55.72
52735;BME280;38631;47.572;10.704;2023-08-17T10:55:40;92762.38;;;24.65;58.86
52735;BME280;38631;47.572;10.704;2023-08-17T10:58:06;92756.13;;;25.07;59.81
52735;BME280;38631;47.572;10.704;2023-08-17T11:00:39;92756.91;;;25.15;60.19
52735;BME280;38631;47.572;10.704;2023-08-17T11:03:06;92756.13;;;25.25;60.30
52735;BME280;38631;47.572;10.704;2023-08-17T11:05:35;92754.56;;;25.10;58.99
52735;BME280;38631;47.572;10.704;2023-08-17T11:08:05;92758.47;;;25.01;58.05
52735;BME280;38631;47.572;10.704;2023-08-17T11:10:31;92751.13;;;24.84;56.64
52735;BME280;38631;47.572;10.704;2023-08-17T11:12:57;92742.97;;;24.73;58.03
52735;BME280;38631;47.572;10.704;2023-08-17T11:15:35;92744.50;;;24.85;56.37
52735;BME280;38631;47.572;10.704;2023-08-17T11:18:07;92739.06;;;25.03;57.98
52735;BME280;38631;47.572;10.704;2023-08-17T11:20:34;92737.84;;;25.33;58.58
52735;BME280;38631;47.572;10.704;2023-08-17T11:22:59;92734.72;;;25.38;59.00
52735;BME280;38631;47.572;10.704;2023-08-17T11:25:26;92732.81;;;25.28;57.40
52735;BME280;38631;47.572;10.704;2023-08-17T11:27:52;92731.22;;;25.48;57.70
52735;BME280;38631;47.572;10.704;2023-08-17T11:30:18;92732.41;;;25.36;58.06
52735;BME280;38631;47.572;10.704;2023-08-17T11:32:44;92730.44;;;25.51;58.32
52735;BME280;38631;47.572;10.704;2023-08-17T11:35:10;92726.53;;;25.52;58.08
52735;BME280;38631;47.572;10.704;2023-08-17T11:37:36;92738.19;;;25.49;57.75
52735;BME280;38631;47.572;10.704;2023-08-17T11:40:02;92723.06;;;25.48;56.46
52735;BME280;38631;47.572;10.704;2023-08-17T11:42:27;92723.00;;;25.55;58.53
52735;BME280;38631;47.572;10.704;2023-08-17T11:44:52;92725.28;;;25.68;56.64
52735;BME280;38631;47.572;10.704;2023-08-17T11:47:18;92727.75;;;25.37;55.98
52735;BME280;38631;47.572;10.704;2023-08-17T11:49:47;92725.41;;;25.35;55.94
52735;BME280;38631;47.572;10.704;2023-08-17T11:52:12;92724.25;;;25.43;58.12
52735;BME280;38631;47.572;10.704;2023-08-17T11:54:41;92713.03;;;25.24;57.22
52735;BME280;38631;47.572;10.704;2023-08-17T11:57:07;92711.81;;;25.39;55.01
52735;BME280;38631;47.572;10.704;2023-08-17T11:59:32;92719.22;;;25.38;53.72
52735;BME280;38631;47.572;10.704;2023-08-17T12:01:59;92711.41;;;25.40;52.40
52735;BME280;38631;47.572;10.704;2023-08-17T12:04:24;92703.22;;;25.58;53.24
52735;BME280;38631;47.572;10.704;2023-08-17T12:06:49;92716.41;;;25.56;52.09
52735;BME280;38631;47.572;10.704;2023-08-17T12:09:15;92703.94;;;25.66;53.54
52735;BME280;38631;47.572;10.704;2023-08-17T12:11:40;92708.50;;;25.91;56.03
52735;BME280;38631;47.572;10.704;2023-08-17T12:14:10;92705.09;;;25.69;54.52
52735;BME280;38631;47.572;10.704;2023-08-17T12:16:45;92696.50;;;25.81;55.80
52735;BME280;38631;47.572;10.704;2023-08-17T12:19:12;92689.47;;;25.80;53.47
52735;BME280;38631;47.572;10.704;2023-08-17T12:21:37;92689.94;;;25.68;55.08
52735;BME280;38631;47.572;10.704;2023-08-17T12:24:05;92690.25;;;25.80;54.05
52735;BME280;38631;47.572;10.704;2023-08-17T12:26:31;92680.97;;;25.71;54.51
52735;BME280;38631;47.572;10.704;2023-08-17T12:28:58;92688.25;;;25.95;55.71
52735;BME280;38631;47.572;10.704;2023-08-17T12:31:23;92679.38;;;25.84;55.08
52735;BME280;38631;47.572;10.704;2023-08-17T12:33:49;92679.78;;;25.86;54.32
52735;BME280;38631;47.572;10.704;2023-08-17T12:36:14;92676.31;;;25.75;54.51
52735;BME280;38631;47.572;10.704;2023-08-17T12:38:40;92668.44;;;25.95;54.89
52735;BME280;38631;47.572;10.704;2023-08-17T12:41:10;92680.47;;;25.97;55.76
52735;BME280;38631;47.572;10.704;2023-08-17T12:43:37;92667.28;;;25.92;56.03
52735;BME280;38631;47.572;10.704;2023-08-17T12:46:02;92669.16;;;26.02;55.29
52735;BME280;38631;47.572;10.704;2023-08-17T12:48:28;92663.50;;;25.72;55.05
52735;BME280;38631;47.572;10.704;2023-08-17T12:50:53;92666.31;;;25.50;54.61
52735;BME280;38631;47.572;10.704;2023-08-17T12:53:19;92671.78;;;25.43;55.18
52735;BME280;38631;47.572;10.704;2023-08-17T12:55:44;92672.50;;;25.61;54.98